Time;durP1;ratioP1;P1;durP2;ratioP2;P2;SDS_P1;SDS_P2;PMS_P1;PMS_P2;Temp;Humidity;BMP_temperature;BMP_pressure;BME280_temperature;BME280_humidity;BME280_pressure;Samples;Min_cycle;Max_cycle;Signal;HPM_P1;HPM_P2
2023/05/11 00:00:12;;;;;;;1.87;1.30;;;15.00;99.90;;;;;;4962319;28;20452;-83
2023/05/11 00:02:50;;;;;;;1.40;1.30;;;15.10;99.90;;;;;;4954388;28;20507;-84
2023/05/11 00:05:24;;;;;;;1.30;1.20;;;15.10;99.90;;;;;;4959443;28;20469;-84
2023/05/11 00:07:57;;;;;;;1.80;1.20;;;15.00;99.90;;;;;;4962455;29;20636;-83
2023/05/11 00:10:24;;;;;;;0.93;0.90;;;14.90;99.90;;;;;;4965717;29;20449;-84
2023/05/11 00:12:53;;;;;;;0.60;0.60;;;14.80;99.90;;;;;;4968150;28;20862;-84
2023/05/11 00:15:24;;;;;;;1.23;0.60;;;14.80;99.90;;;;;;4973758;28;20488;-84
2023/05/11 00:17:54;;;;;;;0.80;0.80;;;14.70;99.90;;;;;;4959256;28;20453;-84
2023/05/11 00:20:26;;;;;;;0.60;0.60;;;14.70;99.90;;;;;;4974478;28;20548;-84
2023/05/11 00:23:01;;;;;;;0.90;0.90;;;14.60;99.90;;;;;;4976315;28;20488;-82
2023/05/11 00:25:32;;;;;;;0.60;0.60;;;14.60;99.90;;;;;;4975374;28;20473;-82
2023/05/11 00:28:11;;;;;;;0.87;0.87;;;14.60;99.90;;;;;;4976096;28;20445;-82
2023/05/11 00:30:43;;;;;;;1.23;0.83;;;14.60;99.90;;;;;;4975542;28;20468;-82
2023/05/11 00:33:26;;;;;;;2.00;0.80;;;14.60;99.90;;;;;;4964891;28;20462;-82
2023/05/11 00:36:14;;;;;;;1.10;1.10;;;14.60;99.90;;;;;;4963714;28;20457;-83
2023/05/11 00:38:46;;;;;;;1.10;1.00;;;14.60;99.90;;;;;;4954415;28;20465;-82
2023/05/11 00:41:27;;;;;;;1.20;1.10;;;14.60;99.90;;;;;;4955638;29;20587;-81
2023/05/11 00:43:57;;;;;;;0.73;0.73;;;14.60;99.90;;;;;;4953769;28;20481;-81
2023/05/11 00:46:35;;;;;;;1.07;0.70;;;14.60;99.90;;;;;;4955473;28;20620;-81
2023/05/11 00:49:11;;;;;;;1.60;1.10;;;14.50;99.90;;;;;;4958862;29;20461;-83
2023/05/11 00:52:01;;;;;;;1.17;1.07;;;14.50;99.90;;;;;;4973864;28;20476;-81
2023/05/11 00:54:47;;;;;;;1.80;1.13;;;14.50;99.90;;;;;;4960878;28;20449;-83
2023/05/11 00:57:20;;;;;;;1.73;1.63;;;14.50;99.90;;;;;;4961934;28;20457;-82
2023/05/11 00:59:55;;;;;;;2.27;1.37;;;14.60;99.90;;;;;;4975478;28;20453;-82
2023/05/11 01:02:29;;;;;;;1.60;1.50;;;14.60;99.90;;;;;;4956827;28;20570;-84
2023/05/11 01:05:04;;;;;;;1.83;1.67;;;14.60;99.90;;;;;;4962241;28;20445;-84
2023/05/11 01:07:55;;;;;;;1.30;1.20;;;14.70;99.90;;;;;;4966645;28;20450;-83
2023/05/11 01:10:43;;;;;;;1.93;1.17;;;14.70;99.90;;;;;;4973962;28;20453;-84
2023/05/11 01:13:42;;;;;;;1.30;1.10;;;14.70;99.90;;;;;;4971338;28;20463;-83
2023/05/11 01:16:25;;;;;;;1.00;0.90;;;14.60;99.90;;;;;;4966899;28;21027;-82
2023/05/11 01:19:05;;;;;;;1.50;1.20;;;14.80;99.90;;;;;;4975876;28;20540;-83
2023/05/11 01:21:38;;;;;;;1.00;0.90;;;14.90;99.90;;;;;;4971576;28;20528;-82
2023/05/11 01:24:58;;;;;;;1.03;0.93;;;14.80;99.90;;;;;;4974765;28;20508;-82
2023/05/11 01:28:29;;;;;;;1.23;1.03;;;14.70;99.90;;;;;;4961769;28;20461;-82
2023/05/11 01:31:16;;;;;;;1.27;1.10;;;14.80;99.90;;;;;;4928745;29;20482;-83
2023/05/11 01:34:01;;;;;;;2.63;1.33;;;14.90;99.90;;;;;;4916684;29;20467;-82
2023/05/11 01:36:48;;;;;;;2.20;1.57;;;14.80;99.90;;;;;;4956275;28;20469;-82
2023/05/11 01:39:38;;;;;;;3.30;1.90;;;14.80;99.90;;;;;;4962823;28;20463;-83
2023/05/11 01:42:09;;;;;;;1.77;1.67;;;14.90;99.90;;;;;;4962070;28;20476;-83
2023/05/11 01:44:48;;;;;;;3.17;2.47;;;14.80;99.90;;;;;;4966258;28;20491;-84
2023/05/11 01:47:19;;;;;;;2.77;1.90;;;15.20;99.90;;;;;;4966247;28;20481;-83
2023/05/11 01:50:00;;;;;;;2.07;1.80;;;15.40;99.90;;;;;;4967761;28;20872;-83
2023/05/11 01:52:54;;;;;;;2.90;1.73;;;15.20;99.90;;;;;;4968473;28;20556;-83
2023/05/11 01:55:44;;;;;;;2.50;1.97;;;14.90;99.90;;;;;;4968962;28;20456;-83
2023/05/11 01:58:48;;;;;;;2.40;1.70;;;14.90;99.90;;;;;;4967160;28;20460;-82
2023/05/11 02:01:27;;;;;;;2.60;2.00;;;14.70;99.90;;;;;;4964992;28;20497;-83
2023/05/11 02:04:01;;;;;;;2.90;2.30;;;14.60;99.90;;;;;;4954332;28;20488;-82
2023/05/11 02:06:30;;;;;;;3.20;2.20;;;14.70;99.90;;;;;;4976777;28;20534;-83
2023/05/11 02:09:10;;;;;;;2.23;2.03;;;14.70;99.90;;;;;;4960910;28;20824;-83
2023/05/11 02:11:55;;;;;;;2.40;2.20;;;14.80;99.90;;;;;;4960995;28;20833;-81
2023/05/11 02:14:33;;;;;;;3.80;2.50;;;14.80;99.90;;;;;;4962638;28;20465;-83
2023/05/11 02:17:06;;;;;;;3.50;2.70;;;14.70;99.90;;;;;;4957721;28;20507;-83
2023/05/11 02:19:43;;;;;;;2.97;2.77;;;14.70;99.90;;;;;;4960200;28;20456;-83
2023/05/11 02:22:24;;;;;;;3.10;2.53;;;14.60;99.90;;;;;;4953928;29;20474;-83
2023/05/11 02:24:51;;;;;;;5.27;2.53;;;14.60;99.90;;;;;;4961374;28;20472;-83
2023/05/11 02:27:23;;;;;;;6.73;3.50;;;14.60;99.90;;;;;;4960120;28;20484;-83
2023/05/11 02:29:53;;;;;;;4.67;3.00;;;14.60;99.90;;;;;;4958173;29;20466;-83
2023/05/11 02:32:49;;;;;;;2.60;2.40;;;14.60;99.90;;;;;;4958822;29;21301;-81
2023/05/11 02:38:44;;;;;;;2.73;2.27;;;14.80;99.90;;;;;;4958090;29;21043;-84
2023/05/11 02:41:32;;;;;;;3.23;2.93;;;15.20;99.90;;;;;;4973443;28;20473;-83
2023/05/11 02:44:20;;;;;;;3.93;2.27;;;14.80;99.90;;;;;;4970213;28;20480;-83
2023/05/11 02:46:55;;;;;;;2.53;2.33;;;14.90;99.90;;;;;;4958806;28;20481;-81
2023/05/11 02:49:29;;;;;;;3.57;2.67;;;15.10;99.90;;;;;;4953057;28;20460;-82
2023/05/11 02:52:30;;;;;;;3.20;2.57;;;14.90;99.90;;;;;;4973826;28;20544;-82
2023/05/11 02:55:10;;;;;;;3.20;2.90;;;14.70;99.90;;;;;;4953340;28;20469;-83
2023/05/11 02:57:45;;;;;;;2.57;2.37;;;14.40;99.90;;;;;;4966840;28;20456;-82
2023/05/11 03:00:32;;;;;;;3.20;2.90;;;14.60;99.90;;;;;;4960725;28;20480;-83
2023/05/11 03:03:11;;;;;;;3.47;2.90;;;14.50;99.90;;;;;;4960596;28;20603;-82
2023/05/11 03:05:52;;;;;;;2.53;2.33;;;14.70;99.90;;;;;;4961124;28;20466;-82
2023/05/11 03:08:33;;;;;;;3.07;2.77;;;14.70;99.90;;;;;;4964824;28;20469;-82
2023/05/11 03:11:14;;;;;;;3.73;3.03;;;14.70;99.90;;;;;;4965258;28;20449;-83
2023/05/11 03:13:43;;;;;;;5.10;3.60;;;14.40;99.90;;;;;;4957100;29;20969;-83
2023/05/11 03:16:13;;;;;;;3.60;3.30;;;14.60;99.90;;;;;;4954955;29;20492;-83
2023/05/11 03:18:48;;;;;;;4.30;3.60;;;14.60;99.90;;;;;;4957120;28;20472;-82
2023/05/11 03:21:40;;;;;;;3.57;3.27;;;14.40;99.90;;;;;;4960575;28;21262;-83
2023/05/11 03:24:22;;;;;;;4.97;3.80;;;14.40;99.90;;;;;;4962314;28;20532;-81
2023/05/11 03:26:58;;;;;;;5.23;3.40;;;14.50;99.90;;;;;;4962279;28;21173;-83
2023/05/11 03:29:43;;;;;;;;;;;;;;;;;;;;;
2023/05/11 03:32:12;;;;;;;4.87;3.87;;;14.50;99.90;;;;;;4956691;29;20620;-83
2023/05/11 03:34:48;;;;;;;5.13;4.40;;;14.30;99.90;;;;;;4960567;28;20468;-84
2023/05/11 03:37:29;;;;;;;7.70;3.80;;;14.40;99.90;;;;;;4960505;28;20540;-83
2023/05/11 03:40:01;;;;;;;8.00;5.20;;;14.50;99.90;;;;;;4958159;29;21382;-82
2023/05/11 03:42:33;;;;;;;4.30;3.70;;;14.60;99.90;;;;;;4957706;29;20466;-83
2023/05/11 03:45:12;;;;;;;7.20;4.60;;;14.60;99.90;;;;;;4961147;28;20488;-83
2023/05/11 03:48:26;;;;;;;6.43;4.73;;;14.50;99.90;;;;;;4952098;28;20468;-82
2023/05/11 03:51:05;;;;;;;6.37;4.60;;;14.40;99.90;;;;;;4963671;28;20445;-82
2023/05/11 03:53:40;;;;;;;6.17;5.10;;;14.20;99.90;;;;;;4951577;28;20465;-82
2023/05/11 03:56:17;;;;;;;6.90;4.03;;;14.10;99.90;;;;;;4953673;28;20718;-82
2023/05/11 03:58:45;;;;;;;6.47;4.20;;;14.10;99.90;;;;;;4950175;28;20481;-82
2023/05/11 04:01:18;;;;;;;7.10;4.57;;;14.10;99.90;;;;;;4953860;28;20480;-82
2023/05/11 04:03:54;;;;;;;5.67;4.37;;;14.10;99.90;;;;;;4949396;28;20560;-82
2023/05/11 04:06:27;;;;;;;6.27;4.53;;;14.20;99.90;;;;;;4960557;28;21024;-82
2023/05/11 04:08:57;;;;;;;5.83;4.27;;;14.40;99.90;;;;;;4952646;28;20524;-82
2023/05/11 04:11:38;;;;;;;6.67;5.00;;;14.30;99.90;;;;;;4967278;28;20495;-81
2023/05/11 04:14:28;;;;;;;9.23;5.50;;;14.20;99.90;;;;;;4956700;28;20475;-82
2023/05/11 04:16:55;;;;;;;6.80;4.90;;;14.30;99.90;;;;;;4962004;28;20457;-82
2023/05/11 04:19:32;;;;;;;8.00;5.00;;;14.20;99.90;;;;;;4954327;28;20483;-82
2023/05/11 04:22:16;;;;;;;6.00;4.10;;;14.30;99.90;;;;;;4971505;28;20484;-85
2023/05/11 04:24:49;;;;;;;8.77;5.67;;;14.40;99.90;;;;;;4943276;28;20476;-82
2023/05/11 04:27:26;;;;;;;6.60;4.90;;;14.70;99.90;;;;;;4968196;28;20511;-83
2023/05/11 04:30:16;;;;;;;7.90;5.10;;;14.60;99.90;;;;;;4955045;28;20555;-83
2023/05/11 04:33:20;;;;;;;7.20;5.40;;;15.00;99.90;;;;;;4962336;28;20456;-83
2023/05/11 04:36:00;;;;;;;7.53;4.33;;;15.00;99.90;;;;;;4962312;28;20461;-82
2023/05/11 04:38:38;;;;;;;7.20;4.77;;;15.00;99.90;;;;;;4958005;28;20469;-83
2023/05/11 04:41:14;;;;;;;6.70;4.50;;;15.10;99.90;;;;;;4960447;28;20718;-83
2023/05/11 04:43:51;;;;;;;6.03;4.50;;;14.90;99.90;;;;;;4972526;28;20563;-82
2023/05/11 04:46:33;;;;;;;6.07;4.50;;;15.00;99.90;;;;;;4961057;28;20495;-84
2023/05/11 04:49:03;;;;;;;5.73;4.60;;;14.70;99.90;;;;;;4955037;28;20492;-82
2023/05/11 04:51:42;;;;;;;4.90;3.70;;;14.60;99.90;;;;;;4963873;28;21049;-83
2023/05/11 04:54:15;;;;;;;6.87;4.50;;;14.80;99.90;;;;;;4959392;28;20467;-82
2023/05/11 04:57:00;;;;;;;6.60;4.47;;;15.00;99.90;;;;;;4964764;28;20457;-82
2023/05/11 04:59:47;;;;;;;5.73;4.37;;;14.70;99.90;;;;;;4958531;28;20449;-82
2023/05/11 05:02:27;;;;;;;6.60;4.43;;;15.00;99.90;;;;;;4956179;28;20560;-82
2023/05/11 05:05:06;;;;;;;6.73;4.37;;;15.10;99.90;;;;;;4958553;28;21210;-82
2023/05/11 05:07:39;;;;;;;6.47;5.40;;;15.10;99.90;;;;;;4959974;28;20465;-82
2023/05/11 05:10:08;;;;;;;8.43;5.20;;;14.80;99.90;;;;;;4972442;28;21035;-83
2023/05/11 05:12:41;;;;;;;7.27;4.63;;;15.00;99.90;;;;;;4961790;28;20483;-83
2023/05/11 05:15:11;;;;;;;9.00;5.57;;;14.80;99.90;;;;;;4969917;28;20500;-83
2023/05/11 05:17:53;;;;;;;8.77;5.67;;;14.70;99.90;;;;;;4966948;28;20928;-82
2023/05/11 05:20:21;;;;;;;12.50;6.03;;;14.70;99.90;;;;;;4958191;28;20457;-84
2023/05/11 05:22:54;;;;;;;9.33;5.87;;;14.60;99.90;;;;;;4965185;28;20500;-83
2023/05/11 05:25:40;;;;;;;7.47;5.83;;;14.60;99.90;;;;;;4960570;28;20480;-82
2023/05/11 05:28:14;;;;;;;6.53;5.23;;;14.50;99.90;;;;;;4962086;28;20884;-83
2023/05/11 05:30:46;;;;;;;10.20;6.97;;;14.60;99.90;;;;;;4960685;28;20456;-82
2023/05/11 05:33:16;;;;;;;10.23;6.17;;;14.50;99.90;;;;;;4978483;28;20452;-82
2023/05/11 05:35:46;;;;;;;6.60;4.73;;;14.70;99.90;;;;;;4963636;28;20495;-83
2023/05/11 05:38:15;;;;;;;7.73;5.30;;;15.20;99.90;;;;;;4962559;28;20559;-84
2023/05/11 05:41:01;;;;;;;6.10;5.13;;;15.30;99.90;;;;;;4963011;28;20990;-84
2023/05/11 05:43:33;;;;;;;7.23;5.30;;;15.10;99.90;;;;;;4977027;28;20847;-84
2023/05/11 05:46:15;;;;;;;7.80;5.33;;;15.00;99.90;;;;;;4962531;28;20474;-81
2023/05/11 05:48:47;;;;;;;11.57;7.43;;;14.90;99.90;;;;;;4961908;29;20471;-84
2023/05/11 05:51:31;;;;;;;9.93;6.90;;;14.80;99.90;;;;;;4959361;28;20538;-82
2023/05/11 05:54:33;;;;;;;10.80;7.23;;;14.80;99.90;;;;;;4971708;28;20472;-82
2023/05/11 05:57:13;;;;;;;9.33;6.47;;;14.80;99.90;;;;;;4949265;28;20461;-83
2023/05/11 05:59:50;;;;;;;10.73;7.40;;;14.80;99.90;;;;;;4981267;28;20479;-83
2023/05/11 06:02:47;;;;;;;9.87;7.03;;;14.90;99.90;;;;;;4958029;28;20579;-83
2023/05/11 06:05:23;;;;;;;10.97;8.20;;;14.90;99.90;;;;;;4955132;28;20485;-82
2023/05/11 06:07:50;;;;;;;10.97;7.47;;;15.00;99.90;;;;;;4977942;28;20537;-84
2023/05/11 06:11:00;;;;;;;13.10;7.87;;;14.90;99.90;;;;;;4960845;28;20457;-83
2023/05/11 06:13:54;;;;;;;11.50;6.83;;;14.90;99.90;;;;;;4956393;28;20457;-83
2023/05/11 06:16:40;;;;;;;11.27;7.23;;;15.00;99.90;;;;;;4972927;28;20468;-83
2023/05/11 06:19:12;;;;;;;12.83;8.40;;;15.00;99.90;;;;;;4958288;28;20441;-83
2023/05/11 06:21:54;;;;;;;10.10;7.30;;;15.10;99.90;;;;;;4961770;28;20496;-83
2023/05/11 06:24:37;;;;;;;18.70;9.37;;;15.00;99.90;;;;;;4961863;29;20476;-83
2023/05/11 06:27:10;;;;;;;12.47;7.63;;;15.10;99.90;;;;;;4963030;28;20755;-84
2023/05/11 06:29:43;;;;;;;11.20;7.10;;;15.10;99.90;;;;;;4963557;28;20479;-84
2023/05/11 06:32:15;;;;;;;10.73;8.23;;;15.10;99.90;;;;;;4964777;28;20485;-84
2023/05/11 06:34:47;;;;;;;53.77;13.13;;;15.10;99.90;;;;;;4965975;28;20463;-83
2023/05/11 06:37:34;;;;;;;10.53;7.43;;;15.20;99.90;;;;;;4961606;28;20532;-83
2023/05/11 06:40:18;;;;;;;12.30;7.00;;;15.20;99.90;;;;;;4977190;28;20456;-83
2023/05/11 06:43:01;;;;;;;11.63;7.07;;;15.40;99.90;;;;;;4948395;28;20499;-83
2023/05/11 06:45:57;;;;;;;11.13;7.23;;;15.50;99.90;;;;;;4960525;28;21226;-83
2023/05/11 06:51:46;;;;;;;11.73;7.13;;;15.70;99.90;;;;;;4962757;28;21033;-82
2023/05/11 06:54:24;;;;;;;11.10;7.87;;;15.70;99.90;;;;;;4963638;28;20468;-82
2023/05/11 06:57:32;;;;;;;15.23;7.33;;;15.80;99.90;;;;;;4962811;28;20470;-82
2023/05/11 07:00:02;;;;;;;12.60;7.50;;;16.10;99.90;;;;;;4969505;28;20472;-83
2023/05/11 07:02:39;;;;;;;11.10;7.60;;;16.00;99.90;;;;;;4970161;28;20480;-83
2023/05/11 07:05:20;;;;;;;10.83;7.73;;;16.00;99.90;;;;;;4977714;28;20476;-83
2023/05/11 07:08:09;;;;;;;17.07;7.83;;;16.00;99.90;;;;;;4974814;28;20480;-80
2023/05/11 07:10:53;;;;;;;10.70;7.27;;;16.00;99.90;;;;;;4970583;28;20480;-81
2023/05/11 07:13:31;;;;;;;13.10;7.77;;;16.00;99.90;;;;;;4986325;28;20476;-80
2023/05/11 07:16:06;;;;;;;9.03;6.87;;;15.90;99.90;;;;;;4971530;28;20456;-81
2023/05/11 07:18:41;;;;;;;9.63;6.60;;;15.90;99.90;;;;;;4984993;28;20458;-82
2023/05/11 07:21:28;;;;;;;12.03;8.27;;;15.80;99.90;;;;;;4959820;28;20476;-83
2023/05/11 07:23:59;;;;;;;12.33;7.87;;;15.80;99.90;;;;;;4971949;28;20524;-84
2023/05/11 07:26:31;;;;;;;11.10;6.50;;;15.90;99.90;;;;;;4974758;28;20469;-82
2023/05/11 07:29:09;;;;;;;9.60;7.07;;;15.90;99.90;;;;;;4969368;28;20456;-81
2023/05/11 07:31:47;;;;;;;11.70;7.40;;;15.90;99.90;;;;;;4969079;28;20480;-81
2023/05/11 07:34:39;;;;;;;8.37;6.80;;;16.00;99.90;;;;;;4963366;28;20519;-85
2023/05/11 07:37:28;;;;;;;10.50;7.40;;;16.30;99.90;;;;;;4961441;28;20461;-84
2023/05/11 07:40:12;;;;;;;9.60;7.00;;;16.80;99.90;;;;;;4956998;28;20452;-84
2023/05/11 07:43:04;;;;;;;11.27;7.57;;;16.50;99.90;;;;;;4961402;28;20515;-84
2023/05/11 07:45:44;;;;;;;11.97;7.30;;;16.20;99.90;;;;;;4964412;28;20485;-84
2023/05/11 07:48:25;;;;;;;12.80;6.73;;;16.10;99.90;;;;;;4946286;28;20481;-84
2023/05/11 07:50:52;;;;;;;11.20;7.27;;;16.10;99.90;;;;;;4963904;28;20531;-84
2023/05/11 07:53:19;;;;;;;11.00;6.60;;;16.10;99.90;;;;;;4960690;29;20468;-84
2023/05/11 07:55:46;;;;;;;11.83;7.40;;;16.10;99.90;;;;;;4960673;28;20464;-84
2023/05/11 07:58:13;;;;;;;10.20;6.83;;;16.20;99.90;;;;;;4981842;28;20472;-84
2023/05/11 08:00:40;;;;;;;10.43;6.87;;;16.40;99.90;;;;;;4965834;28;20868;-83
2023/05/11 08:03:07;;;;;;;23.23;8.97;;;16.70;99.90;;;;;;4957575;28;20496;-83
2023/05/11 08:05:36;;;;;;;11.87;8.00;;;16.90;99.90;;;;;;4960282;28;20512;-82
2023/05/11 08:08:04;;;;;;;8.87;6.37;;;17.10;99.90;;;;;;4961468;28;20769;-82
2023/05/11 08:10:31;;;;;;;7.77;6.57;;;17.30;99.90;;;;;;4964504;28;20517;-82
2023/05/11 08:12:58;;;;;;;9.20;7.53;;;17.70;98.60;;;;;;4960166;29;21021;-82
2023/05/11 08:15:25;;;;;;;11.00;7.70;;;17.70;97.50;;;;;;4963834;29;20457;-83
2023/05/11 08:17:52;;;;;;;11.50;7.40;;;17.80;97.80;;;;;;4964752;29;20484;-83
2023/05/11 08:20:19;;;;;;;8.27;7.20;;;17.40;98.10;;;;;;4965213;28;21044;-83
2023/05/11 08:22:45;;;;;;;9.50;7.20;;;17.10;98.50;;;;;;4965696;28;20476;-83
2023/05/11 08:25:12;;;;;;;9.80;7.43;;;16.90;98.80;;;;;;4973262;28;20484;-83
2023/05/11 08:27:39;;;;;;;10.53;7.50;;;16.80;98.80;;;;;;4965598;28;20449;-83
2023/05/11 08:30:08;;;;;;;8.90;7.17;;;16.90;99.10;;;;;;4966783;28;20561;-84
2023/05/11 08:32:38;;;;;;;7.33;6.63;;;17.00;98.20;;;;;;4974142;28;20559;-83
2023/05/11 08:35:23;;;;;;;8.93;6.70;;;17.00;97.70;;;;;;4988052;28;20457;-84
2023/05/11 08:37:50;;;;;;;8.50;7.13;;;17.10;97.70;;;;;;4991910;28;20476;-82
2023/05/11 08:40:19;;;;;;;10.73;6.63;;;17.10;97.70;;;;;;4973935;28;20524;-83
2023/05/11 08:42:47;;;;;;;10.93;7.50;;;17.10;97.90;;;;;;4992160;28;20485;-83
2023/05/11 08:45:16;;;;;;;9.00;7.20;;;17.20;97.80;;;;;;4975999;28;20504;-83
2023/05/11 08:47:45;;;;;;;8.93;7.70;;;17.90;96.90;;;;;;4969953;28;20453;-82
2023/05/11 08:50:12;;;;;;;8.17;6.87;;;17.60;96.60;;;;;;4954904;28;20540;-83
2023/05/11 08:52:42;;;;;;;8.67;7.10;;;17.20;97.20;;;;;;4953451;28;20476;-83
2023/05/11 08:55:12;;;;;;;8.00;7.13;;;17.00;97.80;;;;;;4956534;28;20457;-83
2023/05/11 08:57:39;;;;;;;10.17;7.80;;;17.10;98.00;;;;;;4964379;28;20480;-83
2023/05/11 09:00:07;;;;;;;9.57;7.13;;;17.40;97.50;;;;;;4972119;28;20514;-83
2023/05/11 09:02:34;;;;;;;8.33;6.17;;;17.30;97.40;;;;;;4955371;28;20484;-83
2023/05/11 09:05:03;;;;;;;7.93;6.30;;;17.50;97.50;;;;;;4950893;28;20691;-83
2023/05/11 09:07:32;;;;;;;8.20;6.70;;;17.60;96.50;;;;;;4951279;28;20461;-82
2023/05/11 09:09:59;;;;;;;9.53;7.07;;;17.50;96.10;;;;;;4951475;28;20552;-83
2023/05/11 09:12:27;;;;;;;6.80;5.17;;;17.50;96.10;;;;;;4955876;28;20850;-84
2023/05/11 09:14:55;;;;;;;7.57;6.30;;;17.60;96.30;;;;;;4954186;28;20472;-83
2023/05/11 09:17:27;;;;;;;7.17;6.30;;;17.80;96.10;;;;;;4953638;28;20494;-82
2023/05/11 09:19:59;;;;;;;8.67;6.77;;;17.70;95.20;;;;;;4955844;29;20457;-82
2023/05/11 09:22:26;;;;;;;8.60;6.90;;;18.00;95.00;;;;;;4952986;28;20484;-83
2023/05/11 09:24:58;;;;;;;10.60;6.10;;;18.20;94.40;;;;;;4956653;28;20562;-82
2023/05/11 09:27:25;;;;;;;6.30;5.60;;;18.00;94.40;;;;;;4955531;28;20652;-83
2023/05/11 09:29:53;;;;;;;6.90;5.87;;;17.90;94.20;;;;;;4973187;28;20468;-81
2023/05/11 09:32:22;;;;;;;7.03;5.73;;;17.90;94.10;;;;;;4960840;28;20480;-84
2023/05/11 09:34:49;;;;;;;6.83;6.00;;;17.90;94.60;;;;;;4957414;28;20469;-83
2023/05/11 09:37:17;;;;;;;6.87;5.87;;;18.00;95.20;;;;;;4962457;28;20527;-83
2023/05/11 09:39:44;;;;;;;7.10;6.20;;;17.90;94.80;;;;;;4961123;28;20547;-84
2023/05/11 09:42:31;;;;;;;7.03;6.33;;;17.80;94.80;;;;;;4967071;28;20467;-84
2023/05/11 09:45:01;;;;;;;7.53;6.10;;;17.80;94.90;;;;;;4963005;28;20861;-82
2023/05/11 09:47:39;;;;;;;8.77;7.03;;;17.60;95.00;;;;;;4968502;28;20453;-83
2023/05/11 09:50:24;;;;;;;7.10;6.10;;;17.50;95.30;;;;;;4966587;28;20529;-83
2023/05/11 09:52:52;;;;;;;9.60;5.73;;;17.40;95.80;;;;;;4967931;28;20487;-83
2023/05/11 09:55:19;;;;;;;7.97;5.80;;;17.50;96.10;;;;;;4971482;28;20469;-83
2023/05/11 09:57:54;;;;;;;7.33;6.00;;;17.60;96.20;;;;;;4971438;28;20490;-85
2023/05/11 10:00:21;;;;;;;7.60;5.83;;;17.50;95.90;;;;;;4967291;28;20491;-81
2023/05/11 10:03:05;;;;;;;7.07;5.97;;;17.40;95.90;;;;;;4970258;28;20475;-84
2023/05/11 10:05:35;;;;;;;7.30;6.23;;;17.40;96.10;;;;;;4966128;28;20487;-81
2023/05/11 10:08:03;;;;;;;7.80;5.30;;;17.40;96.30;;;;;;4983331;28;20572;-83
2023/05/11 10:10:32;;;;;;;6.70;5.80;;;17.40;96.60;;;;;;4964190;28;20529;-84
2023/05/11 10:13:01;;;;;;;7.30;5.73;;;17.40;96.90;;;;;;4963141;28;20477;-82
2023/05/11 10:15:31;;;;;;;7.20;5.57;;;17.40;97.00;;;;;;4972319;28;20472;-83
2023/05/11 10:18:01;;;;;;;7.47;6.07;;;17.40;97.10;;;;;;4967212;28;20456;-83
2023/05/11 10:20:32;;;;;;;7.87;5.53;;;17.50;97.10;;;;;;4965858;28;20492;-83
2023/05/11 10:22:59;;;;;;;7.40;5.83;;;17.50;97.20;;;;;;4975850;28;20491;-84
2023/05/11 10:25:27;;;;;;;10.73;5.93;;;17.50;97.40;;;;;;4964328;28;20543;-82
2023/05/11 10:27:56;;;;;;;8.50;6.30;;;17.60;97.30;;;;;;4964327;28;20936;-83
2023/05/11 10:30:23;;;;;;;8.10;5.33;;;17.50;97.00;;;;;;4968613;28;20456;-82
2023/05/11 10:32:51;;;;;;;8.50;7.03;;;17.50;96.90;;;;;;4964096;28;20498;-82
2023/05/11 10:35:18;;;;;;;7.00;5.13;;;17.40;96.80;;;;;;4970841;28;20471;-83
2023/05/11 10:37:46;;;;;;;7.97;5.20;;;17.30;96.70;;;;;;4962627;28;20466;-82
2023/05/11 10:40:14;;;;;;;8.27;5.03;;;17.20;96.60;;;;;;4965973;28;20472;-84
2023/05/11 10:43:03;;;;;;;6.50;4.80;;;17.20;96.90;;;;;;4963927;28;20476;-84
2023/05/11 10:46:10;;;;;;;5.53;5.03;;;17.30;97.00;;;;;;4961223;28;20494;-84
2023/05/11 10:48:43;;;;;;;6.27;4.90;;;17.50;96.40;;;;;;4960236;28;20487;-83
2023/05/11 10:51:37;;;;;;;8.87;4.17;;;17.40;95.90;;;;;;4964879;28;20483;-83
2023/05/11 10:54:35;;;;;;;5.77;5.17;;;17.40;95.70;;;;;;4976407;28;20815;-83
2023/05/11 10:57:29;;;;;;;7.43;4.93;;;17.40;95.40;;;;;;4950500;28;21043;-83
2023/05/11 11:00:17;;;;;;;5.47;4.60;;;17.50;95.40;;;;;;4956041;28;20504;-82
2023/05/11 11:02:44;;;;;;;5.73;4.93;;;17.50;95.00;;;;;;4965455;28;20515;-85
2023/05/11 11:05:15;;;;;;;6.50;5.30;;;17.60;95.20;;;;;;4962356;28;20485;-85
2023/05/11 11:07:59;;;;;;;7.40;6.37;;;17.70;95.00;;;;;;4967680;28;21090;-84
2023/05/11 11:10:31;;;;;;;7.27;5.30;;;17.80;94.90;;;;;;4965499;28;20487;-83
2023/05/11 11:13:18;;;;;;;8.00;5.10;;;17.90;94.60;;;;;;4966442;28;20537;-83
2023/05/11 11:15:54;;;;;;;7.07;5.83;;;18.00;94.20;;;;;;4966825;28;20465;-81
2023/05/11 11:18:27;;;;;;;12.33;7.63;;;18.10;93.90;;;;;;4967090;28;20508;-83
2023/05/11 11:20:55;;;;;;;11.10;6.47;;;18.20;94.20;;;;;;4961241;28;20456;-81
2023/05/11 11:23:43;;;;;;;12.47;7.40;;;18.30;94.60;;;;;;4959705;28;20489;-81
2023/05/11 11:26:14;;;;;;;8.50;7.00;;;18.20;94.30;;;;;;4962301;28;20508;-83
2023/05/11 11:28:53;;;;;;;11.90;6.90;;;18.20;94.60;;;;;;4962877;28;20453;-82
2023/05/11 11:31:25;;;;;;;9.37;7.10;;;18.20;94.50;;;;;;4975570;28;20957;-84
2023/05/11 11:33:57;;;;;;;8.63;6.20;;;18.20;94.40;;;;;;4960438;28;20457;-84
2023/05/11 11:37:05;;;;;;;10.70;7.17;;;18.20;94.50;;;;;;4960554;29;20467;-82
2023/05/11 11:39:41;;;;;;;13.93;7.23;;;18.30;94.60;;;;;;4974112;28;20467;-82
2023/05/11 11:42:11;;;;;;;9.80;7.60;;;18.40;94.70;;;;;;4962012;28;20509;-83
2023/05/11 11:44:39;;;;;;;13.00;7.70;;;18.50;94.60;;;;;;4962597;28;20452;-82
2023/05/11 11:47:10;;;;;;;10.70;7.63;;;18.70;94.50;;;;;;4959564;29;20879;-84
2023/05/11 11:49:38;;;;;;;12.23;7.57;;;18.60;94.30;;;;;;4965304;28;20469;-84
2023/05/11 11:52:10;;;;;;;10.77;6.73;;;18.60;94.40;;;;;;4968233;28;20472;-82
2023/05/11 11:54:42;;;;;;;13.67;9.20;;;18.70;94.30;;;;;;4968437;28;20505;-83
2023/05/11 11:57:29;;;;;;;12.03;7.43;;;18.70;93.70;;;;;;4971099;28;20453;-83
2023/05/11 11:59:56;;;;;;;9.50;7.17;;;18.80;93.60;;;;;;4986511;28;20556;-83
2023/05/11 12:02:25;;;;;;;10.60;8.17;;;18.90;93.50;;;;;;4968439;28;20476;-82
2023/05/11 12:04:57;;;;;;;11.20;7.37;;;19.00;93.10;;;;;;4963116;28;20484;-83
2023/05/11 12:07:25;;;;;;;11.00;6.80;;;19.10;93.10;;;;;;4964287;28;20583;-84
2023/05/11 12:09:52;;;;;;;9.20;7.73;;;19.30;92.70;;;;;;4962275;28;20508;-85
2023/05/11 12:12:20;;;;;;;10.60;7.67;;;19.40;92.50;;;;;;4960267;28;20555;-84
2023/05/11 12:14:49;;;;;;;11.60;7.20;;;19.40;92.40;;;;;;4969334;28;20444;-84
2023/05/11 12:17:33;;;;;;;10.50;7.57;;;19.40;92.50;;;;;;4965562;28;20456;-85
2023/05/11 12:20:17;;;;;;;9.27;7.20;;;19.40;92.60;;;;;;4969599;28;20503;-84
2023/05/11 12:22:48;;;;;;;10.20;7.40;;;19.20;92.70;;;;;;4965099;28;20480;-82
2023/05/11 12:25:16;;;;;;;12.83;8.13;;;19.00;93.00;;;;;;4967606;28;20541;-84
2023/05/11 12:27:59;;;;;;;10.10;7.47;;;19.00;93.50;;;;;;4977206;28;20476;-83
2023/05/11 12:30:33;;;;;;;11.63;7.87;;;18.90;93.50;;;;;;4971682;28;20455;-83
2023/05/11 12:33:03;;;;;;;9.70;7.17;;;18.80;93.50;;;;;;4960303;28;20473;-84
2023/05/11 12:35:32;;;;;;;9.87;6.60;;;18.70;93.50;;;;;;4981550;28;20461;-83
2023/05/11 12:38:01;;;;;;;11.03;7.67;;;18.70;93.30;;;;;;4960809;28;20456;-83
2023/05/11 12:40:29;;;;;;;13.90;7.70;;;18.70;93.40;;;;;;4963413;28;20464;-83
2023/05/11 12:42:58;;;;;;;12.03;7.00;;;18.80;93.50;;;;;;4961876;28;20480;-84
2023/05/11 12:45:26;;;;;;;11.00;7.73;;;18.70;93.40;;;;;;4973543;28;20452;-83
2023/05/11 12:47:54;;;;;;;10.03;7.00;;;18.60;93.60;;;;;;4959846;28;20496;-84
2023/05/11 12:50:22;;;;;;;8.13;7.07;;;18.50;93.90;;;;;;4964395;28;20484;-84
2023/05/11 12:52:49;;;;;;;9.77;7.30;;;18.60;94.10;;;;;;4959433;28;20496;-84
2023/05/11 12:55:27;;;;;;;13.80;8.67;;;18.80;94.00;;;;;;4962897;28;20526;-84
2023/05/11 12:58:12;;;;;;;10.70;7.93;;;18.70;94.10;;;;;;4961094;28;20535;-84
2023/05/11 13:01:27;;;;;;;9.43;7.20;;;18.60;94.20;;;;;;4971037;28;20460;-83
2023/05/11 13:04:04;;;;;;;12.70;8.70;;;18.60;94.20;;;;;;4958474;28;20460;-84
2023/05/11 13:07:06;;;;;;;;;;;;;;;;;;;;;
2023/05/11 13:09:57;;;;;;;8.70;7.63;;;18.80;94.10;;;;;;4969943;28;20522;-83
2023/05/11 13:13:09;;;;;;;10.10;6.50;;;18.90;94.10;;;;;;4972039;28;20464;-83
2023/05/11 13:16:04;;;;;;;10.20;7.03;;;19.10;93.80;;;;;;4966554;28;20448;-80
2023/05/11 13:19:54;;;;;;;9.17;6.90;;;19.20;93.70;;;;;;4969391;28;20449;-83
2023/05/11 13:22:49;;;;;;;8.10;6.80;;;19.40;92.80;;;;;;4929650;29;20572;-82
2023/05/11 13:26:12;;;;;;;9.40;6.50;;;19.50;92.20;;;;;;4933069;29;20461;-83
2023/05/11 13:29:00;;;;;;;10.40;7.20;;;19.50;92.20;;;;;;4952622;28;20544;-83
2023/05/11 13:31:59;;;;;;;;;;;;;;;;;;;;;
2023/05/11 13:34:48;;;;;;;10.83;7.23;;;19.70;91.40;;;;;;4969031;28;20437;-83
2023/05/11 13:37:26;;;;;;;9.23;6.83;;;19.50;91.50;;;;;;4968545;28;20460;-81
2023/05/11 13:40:10;;;;;;;9.80;6.40;;;19.50;91.80;;;;;;4965560;28;20448;-83
2023/05/11 13:46:29;;;;;;;12.83;8.20;;;19.70;91.10;;;;;;4968580;28;20469;-84
2023/05/11 13:52:40;;;;;;;23.63;17.43;;;19.70;91.50;;;;;;4966252;29;20476;-82
2023/05/11 13:55:38;;;;;;;12.20;7.63;;;19.50;91.70;;;;;;4974551;28;20495;-82